sensor_id;sensor_type;location;lat;lon;timestamp;P1;durP1;ratioP1;P2;durP2;ratioP2
15451;SDS011;7827;53.594;9.938;2022-11-20T00:01:37;7.27;;;5.17;;
15451;SDS011;7827;53.594;9.938;2022-11-20T00:04:08;7.57;;;5.27;;
15451;SDS011;7827;53.594;9.938;2022-11-20T00:06:38;7.83;;;5.60;;
15451;SDS011;7827;53.594;9.938;2022-11-20T00:09:08;7.73;;;5.07;;
15451;SDS011;7827;53.594;9.938;2022-11-20T00:11:38;8.80;;;5.77;;
15451;SDS011;7827;53.594;9.938;2022-11-20T00:14:06;7.37;;;5.60;;
15451;SDS011;7827;53.594;9.938;2022-11-20T00:16:36;6.43;;;5.30;;
15451;SDS011;7827;53.594;9.938;2022-11-20T00:19:06;7.07;;;5.53;;
15451;SDS011;7827;53.594;9.938;2022-11-20T00:21:35;7.60;;;5.93;;
15451;SDS011;7827;53.594;9.938;2022-11-20T00:24:04;8.13;;;5.50;;
15451;SDS011;7827;53.594;9.938;2022-11-20T00:26:33;7.57;;;5.80;;
15451;SDS011;7827;53.594;9.938;2022-11-20T00:29:02;7.67;;;5.77;;
15451;SDS011;7827;53.594;9.938;2022-11-20T00:31:30;9.67;;;5.93;;
15451;SDS011;7827;53.594;9.938;2022-11-20T00:34:00;7.57;;;5.80;;
15451;SDS011;7827;53.594;9.938;2022-11-20T00:36:31;7.20;;;5.53;;
15451;SDS011;7827;53.594;9.938;2022-11-20T00:39:01;7.47;;;5.73;;
15451;SDS011;7827;53.594;9.938;2022-11-20T00:41:30;7.40;;;5.63;;
15451;SDS011;7827;53.594;9.938;2022-11-20T00:43:58;6.40;;;5.33;;
15451;SDS011;7827;53.594;9.938;2022-11-20T00:46:27;7.73;;;5.03;;
15451;SDS011;7827;53.594;9.938;2022-11-20T00:48:56;7.37;;;5.27;;
15451;SDS011;7827;53.594;9.938;2022-11-20T00:51:25;8.33;;;5.23;;
15451;SDS011;7827;53.594;9.938;2022-11-20T00:53:57;6.77;;;4.80;;
15451;SDS011;7827;53.594;9.938;2022-11-20T00:56:26;13.60;;;6.20;;
15451;SDS011;7827;53.594;9.938;2022-11-20T00:58:55;8.73;;;5.77;;
15451;SDS011;7827;53.594;9.938;2022-11-20T01:01:27;7.73;;;5.60;;
15451;SDS011;7827;53.594;9.938;2022-11-20T01:03:57;9.57;;;5.83;;
15451;SDS011;7827;53.594;9.938;2022-11-20T01:06:28;8.50;;;5.80;;
15451;SDS011;7827;53.594;9.938;2022-11-20T01:09:00;8.00;;;5.70;;
15451;SDS011;7827;53.594;9.938;2022-11-20T01:11:33;7.37;;;5.70;;
15451;SDS011;7827;53.594;9.938;2022-11-20T01:14:04;7.60;;;5.47;;
15451;SDS011;7827;53.594;9.938;2022-11-20T01:16:35;7.23;;;5.50;;
15451;SDS011;7827;53.594;9.938;2022-11-20T01:19:06;10.47;;;5.70;;
15451;SDS011;7827;53.594;9.938;2022-11-20T01:21:43;7.37;;;5.73;;
15451;SDS011;7827;53.594;9.938;2022-11-20T01:24:17;6.13;;;5.13;;
15451;SDS011;7827;53.594;9.938;2022-11-20T01:26:48;8.90;;;5.50;;
15451;SDS011;7827;53.594;9.938;2022-11-20T01:29:19;9.40;;;5.33;;
15451;SDS011;7827;53.594;9.938;2022-11-20T01:31:51;8.57;;;5.57;;
15451;SDS011;7827;53.594;9.938;2022-11-20T01:34:20;7.37;;;5.97;;
15451;SDS011;7827;53.594;9.938;2022-11-20T01:36:50;7.63;;;6.27;;
15451;SDS011;7827;53.594;9.938;2022-11-20T01:39:22;7.70;;;5.73;;
15451;SDS011;7827;53.594;9.938;2022-11-20T01:41:53;6.73;;;5.53;;
15451;SDS011;7827;53.594;9.938;2022-11-20T01:44:43;8.07;;;5.50;;
15451;SDS011;7827;53.594;9.938;2022-11-20T01:47:21;7.47;;;5.70;;
15451;SDS011;7827;53.594;9.938;2022-11-20T01:49:58;11.03;;;6.23;;
15451;SDS011;7827;53.594;9.938;2022-11-20T01:52:33;9.23;;;6.23;;
15451;SDS011;7827;53.594;9.938;2022-11-20T01:55:09;10.30;;;6.33;;
15451;SDS011;7827;53.594;9.938;2022-11-20T01:57:42;10.73;;;6.57;;
15451;SDS011;7827;53.594;9.938;2022-11-20T02:00:14;8.97;;;6.50;;
15451;SDS011;7827;53.594;9.938;2022-11-20T02:02:47;11.43;;;7.17;;
15451;SDS011;7827;53.594;9.938;2022-11-20T02:05:22;10.33;;;6.77;;
15451;SDS011;7827;53.594;9.938;2022-11-20T02:07:59;7.50;;;5.83;;
15451;SDS011;7827;53.594;9.938;2022-11-20T02:10:31;7.80;;;6.07;;
15451;SDS011;7827;53.594;9.938;2022-11-20T02:13:00;8.70;;;6.03;;
15451;SDS011;7827;53.594;9.938;2022-11-20T02:15:46;9.23;;;5.77;;
15451;SDS011;7827;53.594;9.938;2022-11-20T02:18:17;7.97;;;5.43;;
15451;SDS011;7827;53.594;9.938;2022-11-20T02:20:48;7.53;;;6.13;;
15451;SDS011;7827;53.594;9.938;2022-11-20T02:23:23;9.57;;;6.27;;
15451;SDS011;7827;53.594;9.938;2022-11-20T02:26:02;9.47;;;6.33;;
15451;SDS011;7827;53.594;9.938;2022-11-20T02:28:34;7.70;;;5.27;;
15451;SDS011;7827;53.594;9.938;2022-11-20T02:31:03;7.40;;;5.90;;
15451;SDS011;7827;53.594;9.938;2022-11-20T02:33:32;7.57;;;5.80;;
15451;SDS011;7827;53.594;9.938;2022-11-20T02:36:00;6.93;;;5.70;;
15451;SDS011;7827;53.594;9.938;2022-11-20T02:38:29;10.93;;;6.70;;
15451;SDS011;7827;53.594;9.938;2022-11-20T02:40:58;7.23;;;5.67;;
15451;SDS011;7827;53.594;9.938;2022-11-20T02:43:28;8.77;;;6.47;;
15451;SDS011;7827;53.594;9.938;2022-11-20T02:45:56;10.03;;;6.57;;
15451;SDS011;7827;53.594;9.938;2022-11-20T02:48:25;7.53;;;6.30;;
15451;SDS011;7827;53.594;9.938;2022-11-20T02:50:59;11.03;;;6.30;;
15451;SDS011;7827;53.594;9.938;2022-11-20T02:53:27;10.03;;;6.27;;
15451;SDS011;7827;53.594;9.938;2022-11-20T02:55:56;11.30;;;6.73;;
15451;SDS011;7827;53.594;9.938;2022-11-20T02:58:24;11.33;;;6.90;;
15451;SDS011;7827;53.594;9.938;2022-11-20T03:00:55;10.97;;;6.87;;
15451;SDS011;7827;53.594;9.938;2022-11-20T03:03:23;10.03;;;7.30;;
15451;SDS011;7827;53.594;9.938;2022-11-20T03:05:52;9.90;;;6.90;;
15451;SDS011;7827;53.594;9.938;2022-11-20T03:08:20;9.10;;;6.10;;
15451;SDS011;7827;53.594;9.938;2022-11-20T03:10:49;10.77;;;6.63;;
15451;SDS011;7827;53.594;9.938;2022-11-20T03:13:17;10.10;;;6.77;;
15451;SDS011;7827;53.594;9.938;2022-11-20T03:15:45;13.97;;;7.37;;
15451;SDS011;7827;53.594;9.938;2022-11-20T03:21:05;10.33;;;6.17;;
15451;SDS011;7827;53.594;9.938;2022-11-20T03:23:33;8.20;;;6.80;;
15451;SDS011;7827;53.594;9.938;2022-11-20T03:26:09;9.27;;;6.10;;
15451;SDS011;7827;53.594;9.938;2022-11-20T03:28:41;8.57;;;6.30;;
15451;SDS011;7827;53.594;9.938;2022-11-20T03:31:14;8.63;;;6.07;;
15451;SDS011;7827;53.594;9.938;2022-11-20T03:33:45;12.93;;;6.33;;
15451;SDS011;7827;53.594;9.938;2022-11-20T03:36:14;9.83;;;6.43;;
15451;SDS011;7827;53.594;9.938;2022-11-20T03:38:45;9.23;;;5.67;;
15451;SDS011;7827;53.594;9.938;2022-11-20T03:41:15;7.73;;;6.20;;
15451;SDS011;7827;53.594;9.938;2022-11-20T03:43:48;9.07;;;6.60;;
15451;SDS011;7827;53.594;9.938;2022-11-20T03:46:17;9.97;;;6.63;;
15451;SDS011;7827;53.594;9.938;2022-11-20T03:48:47;9.97;;;7.00;;
15451;SDS011;7827;53.594;9.938;2022-11-20T03:51:18;7.20;;;6.33;;
15451;SDS011;7827;53.594;9.938;2022-11-20T03:53:49;7.83;;;6.60;;
15451;SDS011;7827;53.594;9.938;2022-11-20T03:56:21;10.70;;;6.77;;
15451;SDS011;7827;53.594;9.938;2022-11-20T03:58:52;9.17;;;6.83;;
15451;SDS011;7827;53.594;9.938;2022-11-20T04:01:21;8.43;;;7.30;;
15451;SDS011;7827;53.594;9.938;2022-11-20T04:03:53;9.53;;;7.10;;
15451;SDS011;7827;53.594;9.938;2022-11-20T04:06:24;10.20;;;6.20;;
15451;SDS011;7827;53.594;9.938;2022-11-20T04:08:55;7.97;;;6.90;;
15451;SDS011;7827;53.594;9.938;2022-11-20T04:11:25;9.63;;;7.20;;
15451;SDS011;7827;53.594;9.938;2022-11-20T04:13:55;8.67;;;6.90;;
15451;SDS011;7827;53.594;9.938;2022-11-20T04:16:25;10.10;;;6.90;;
15451;SDS011;7827;53.594;9.938;2022-11-20T04:18:59;7.50;;;6.67;;
15451;SDS011;7827;53.594;9.938;2022-11-20T04:21:29;9.73;;;6.60;;
15451;SDS011;7827;53.594;9.938;2022-11-20T04:23:57;9.00;;;7.53;;
15451;SDS011;7827;53.594;9.938;2022-11-20T04:26:26;7.80;;;6.97;;
15451;SDS011;7827;53.594;9.938;2022-11-20T04:28:56;8.67;;;7.17;;
15451;SDS011;7827;53.594;9.938;2022-11-20T04:31:28;8.40;;;6.23;;
15451;SDS011;7827;53.594;9.938;2022-11-20T04:34:00;10.13;;;6.53;;
15451;SDS011;7827;53.594;9.938;2022-11-20T04:36:29;9.07;;;7.03;;
15451;SDS011;7827;53.594;9.938;2022-11-20T04:38:59;7.87;;;6.97;;
15451;SDS011;7827;53.594;9.938;2022-11-20T04:41:31;8.77;;;6.97;;
15451;SDS011;7827;53.594;9.938;2022-11-20T04:44:03;9.83;;;6.60;;
15451;SDS011;7827;53.594;9.938;2022-11-20T04:46:34;11.00;;;7.03;;
15451;SDS011;7827;53.594;9.938;2022-11-20T04:49:06;7.97;;;6.93;;
15451;SDS011;7827;53.594;9.938;2022-11-20T04:51:35;11.50;;;7.47;;
15451;SDS011;7827;53.594;9.938;2022-11-20T04:54:03;11.13;;;6.70;;
15451;SDS011;7827;53.594;9.938;2022-11-20T04:56:32;10.13;;;6.57;;
15451;SDS011;7827;53.594;9.938;2022-11-20T04:59:00;9.47;;;7.30;;
15451;SDS011;7827;53.594;9.938;2022-11-20T05:01:30;9.53;;;7.00;;
15451;SDS011;7827;53.594;9.938;2022-11-20T05:03:59;8.97;;;7.17;;
15451;SDS011;7827;53.594;9.938;2022-11-20T05:06:28;10.50;;;7.13;;
15451;SDS011;7827;53.594;9.938;2022-11-20T05:08:57;8.37;;;6.93;;
15451;SDS011;7827;53.594;9.938;2022-11-20T05:11:25;8.80;;;7.63;;
15451;SDS011;7827;53.594;9.938;2022-11-20T05:13:55;11.03;;;6.77;;
15451;SDS011;7827;53.594;9.938;2022-11-20T05:16:27;10.03;;;7.13;;
15451;SDS011;7827;53.594;9.938;2022-11-20T05:18:55;9.53;;;6.90;;
15451;SDS011;7827;53.594;9.938;2022-11-20T05:21:24;12.40;;;7.37;;
15451;SDS011;7827;53.594;9.938;2022-11-20T05:23:55;12.03;;;7.73;;
15451;SDS011;7827;53.594;9.938;2022-11-20T05:26:23;10.77;;;7.50;;
15451;SDS011;7827;53.594;9.938;2022-11-20T05:28:51;9.73;;;7.20;;
15451;SDS011;7827;53.594;9.938;2022-11-20T05:31:20;8.83;;;7.00;;
15451;SDS011;7827;53.594;9.938;2022-11-20T05:33:54;10.80;;;7.57;;
15451;SDS011;7827;53.594;9.938;2022-11-20T05:36:24;10.73;;;7.17;;
15451;SDS011;7827;53.594;9.938;2022-11-20T05:38:52;12.07;;;7.03;;
15451;SDS011;7827;53.594;9.938;2022-11-20T05:41:27;11.40;;;6.90;;
15451;SDS011;7827;53.594;9.938;2022-11-20T05:43:56;9.80;;;7.10;;
15451;SDS011;7827;53.594;9.938;2022-11-20T05:46:25;7.67;;;6.60;;
15451;SDS011;7827;53.594;9.938;2022-11-20T05:48:55;11.20;;;7.63;;
15451;SDS011;7827;53.594;9.938;2022-11-20T05:51:25;10.70;;;7.60;;
15451;SDS011;7827;53.594;9.938;2022-11-20T05:53:57;9.13;;;7.33;;
15451;SDS011;7827;53.594;9.938;2022-11-20T05:56:25;9.47;;;6.83;;
15451;SDS011;7827;53.594;9.938;2022-11-20T05:58:53;9.83;;;7.27;;
15451;SDS011;7827;53.594;9.938;2022-11-20T06:01:22;9.13;;;7.27;;
15451;SDS011;7827;53.594;9.938;2022-11-20T06:03:52;10.80;;;8.13;;
15451;SDS011;7827;53.594;9.938;2022-11-20T06:06:22;11.07;;;7.50;;
15451;SDS011;7827;53.594;9.938;2022-11-20T06:08:51;9.40;;;7.23;;
15451;SDS011;7827;53.594;9.938;2022-11-20T06:11:21;10.80;;;7.97;;
15451;SDS011;7827;53.594;9.938;2022-11-20T06:13:49;12.03;;;8.43;;
15451;SDS011;7827;53.594;9.938;2022-11-20T06:16:19;12.23;;;9.40;;
15451;SDS011;7827;53.594;9.938;2022-11-20T06:18:48;13.53;;;9.93;;
15451;SDS011;7827;53.594;9.938;2022-11-20T06:21:17;16.87;;;11.20;;
15451;SDS011;7827;53.594;9.938;2022-11-20T06:23:48;15.70;;;11.23;;
15451;SDS011;7827;53.594;9.938;2022-11-20T06:26:18;14.17;;;11.23;;
15451;SDS011;7827;53.594;9.938;2022-11-20T06:28:50;16.00;;;11.20;;
15451;SDS011;7827;53.594;9.938;2022-11-20T06:31:20;13.87;;;10.73;;
15451;SDS011;7827;53.594;9.938;2022-11-20T06:33:50;14.07;;;10.67;;
15451;SDS011;7827;53.594;9.938;2022-11-20T06:36:21;11.47;;;9.20;;
15451;SDS011;7827;53.594;9.938;2022-11-20T06:38:50;13.83;;;10.40;;
15451;SDS011;7827;53.594;9.938;2022-11-20T06:41:19;11.70;;;8.43;;
15451;SDS011;7827;53.594;9.938;2022-11-20T06:43:49;10.80;;;8.07;;
15451;SDS011;7827;53.594;9.938;2022-11-20T06:46:19;11.27;;;7.87;;
15451;SDS011;7827;53.594;9.938;2022-11-20T06:48:48;10.90;;;8.47;;
15451;SDS011;7827;53.594;9.938;2022-11-20T06:51:17;10.20;;;7.63;;
15451;SDS011;7827;53.594;9.938;2022-11-20T06:53:46;10.73;;;8.03;;
15451;SDS011;7827;53.594;9.938;2022-11-20T06:56:14;9.33;;;7.37;;
15451;SDS011;7827;53.594;9.938;2022-11-20T06:58:44;10.40;;;7.53;;
15451;SDS011;7827;53.594;9.938;2022-11-20T07:01:13;10.30;;;7.20;;
15451;SDS011;7827;53.594;9.938;2022-11-20T07:03:43;9.47;;;7.67;;
15451;SDS011;7827;53.594;9.938;2022-11-20T07:06:18;10.87;;;7.93;;
15451;SDS011;7827;53.594;9.938;2022-11-20T07:08:46;10.07;;;7.27;;
15451;SDS011;7827;53.594;9.938;2022-11-20T07:11:14;12.63;;;7.50;;
15451;SDS011;7827;53.594;9.938;2022-11-20T07:13:44;7.90;;;6.83;;
15451;SDS011;7827;53.594;9.938;2022-11-20T07:16:12;7.70;;;6.87;;
15451;SDS011;7827;53.594;9.938;2022-11-20T07:18:41;8.60;;;7.00;;
15451;SDS011;7827;53.594;9.938;2022-11-20T07:21:16;8.93;;;7.13;;
15451;SDS011;7827;53.594;9.938;2022-11-20T07:23:44;12.57;;;7.70;;
15451;SDS011;7827;53.594;9.938;2022-11-20T07:26:12;15.40;;;7.73;;
15451;SDS011;7827;53.594;9.938;2022-11-20T07:28:43;10.10;;;7.53;;
15451;SDS011;7827;53.594;9.938;2022-11-20T07:31:13;12.97;;;8.83;;
15451;SDS011;7827;53.594;9.938;2022-11-20T07:33:45;10.93;;;7.83;;
15451;SDS011;7827;53.594;9.938;2022-11-20T07:36:13;9.53;;;7.60;;
15451;SDS011;7827;53.594;9.938;2022-11-20T07:38:42;10.47;;;7.77;;
15451;SDS011;7827;53.594;9.938;2022-11-20T07:41:10;10.00;;;7.70;;
15451;SDS011;7827;53.594;9.938;2022-11-20T07:43:38;9.67;;;8.20;;
15451;SDS011;7827;53.594;9.938;2022-11-20T07:46:08;11.70;;;8.70;;
15451;SDS011;7827;53.594;9.938;2022-11-20T07:48:36;12.33;;;8.53;;
15451;SDS011;7827;53.594;9.938;2022-11-20T07:51:05;10.30;;;8.37;;
15451;SDS011;7827;53.594;9.938;2022-11-20T07:53:33;13.23;;;8.70;;
15451;SDS011;7827;53.594;9.938;2022-11-20T07:56:02;11.63;;;8.23;;
15451;SDS011;7827;53.594;9.938;2022-11-20T07:58:31;9.70;;;7.90;;
15451;SDS011;7827;53.594;9.938;2022-11-20T08:01:04;10.37;;;7.93;;
15451;SDS011;7827;53.594;9.938;2022-11-20T08:03:35;12.27;;;8.00;;
15451;SDS011;7827;53.594;9.938;2022-11-20T08:06:05;9.97;;;8.23;;
15451;SDS011;7827;53.594;9.938;2022-11-20T08:08:35;13.33;;;8.10;;
15451;SDS011;7827;53.594;9.938;2022-11-20T08:11:08;12.03;;;8.57;;
15451;SDS011;7827;53.594;9.938;2022-11-20T08:13:54;12.13;;;8.57;;
15451;SDS011;7827;53.594;9.938;2022-11-20T08:16:42;11.00;;;8.40;;
15451;SDS011;7827;53.594;9.938;2022-11-20T08:19:14;10.20;;;7.20;;
15451;SDS011;7827;53.594;9.938;2022-11-20T08:21:46;8.93;;;7.30;;
15451;SDS011;7827;53.594;9.938;2022-11-20T08:24:14;10.53;;;7.73;;
15451;SDS011;7827;53.594;9.938;2022-11-20T08:26:42;11.80;;;7.90;;
15451;SDS011;7827;53.594;9.938;2022-11-20T08:29:10;10.53;;;7.60;;
15451;SDS011;7827;53.594;9.938;2022-11-20T08:31:39;8.90;;;7.33;;
15451;SDS011;7827;53.594;9.938;2022-11-20T08:34:07;10.37;;;7.40;;
15451;SDS011;7827;53.594;9.938;2022-11-20T08:36:43;9.73;;;7.30;;
15451;SDS011;7827;53.594;9.938;2022-11-20T08:39:11;8.47;;;7.17;;
15451;SDS011;7827;53.594;9.938;2022-11-20T08:41:40;7.93;;;6.40;;
15451;SDS011;7827;53.594;9.938;2022-11-20T08:44:08;8.80;;;6.90;;
15451;SDS011;7827;53.594;9.938;2022-11-20T08:46:37;9.53;;;6.03;;
15451;SDS011;7827;53.594;9.938;2022-11-20T08:49:08;8.47;;;6.60;;
15451;SDS011;7827;53.594;9.938;2022-11-20T08:51:39;8.43;;;6.53;;
15451;SDS011;7827;53.594;9.938;2022-11-20T08:54:09;7.63;;;6.27;;
15451;SDS011;7827;53.594;9.938;2022-11-20T08:56:37;11.43;;;7.50;;
15451;SDS011;7827;53.594;9.938;2022-11-20T08:59:06;9.83;;;7.57;;
15451;SDS011;7827;53.594;9.938;2022-11-20T09:01:54;7.70;;;6.13;;
15451;SDS011;7827;53.594;9.938;2022-11-20T09:04:22;6.43;;;5.73;;
15451;SDS011;7827;53.594;9.938;2022-11-20T09:06:50;9.87;;;6.17;;
15451;SDS011;7827;53.594;9.938;2022-11-20T09:09:20;7.20;;;5.80;;
15451;SDS011;7827;53.594;9.938;2022-11-20T09:11:49;6.77;;;5.57;;
15451;SDS011;7827;53.594;9.938;2022-11-20T09:14:17;7.17;;;6.07;;
15451;SDS011;7827;53.594;9.938;2022-11-20T09:16:45;7.50;;;6.03;;
15451;SDS011;7827;53.594;9.938;2022-11-20T09:19:14;6.53;;;5.87;;
15451;SDS011;7827;53.594;9.938;2022-11-20T09:22:02;7.73;;;6.00;;
15451;SDS011;7827;53.594;9.938;2022-11-20T09:24:32;6.47;;;5.80;;
15451;SDS011;7827;53.594;9.938;2022-11-20T09:27:03;6.90;;;5.83;;
15451;SDS011;7827;53.594;9.938;2022-11-20T09:29:32;7.53;;;5.90;;
15451;SDS011;7827;53.594;9.938;2022-11-20T09:32:01;8.70;;;6.30;;
15451;SDS011;7827;53.594;9.938;2022-11-20T09:34:29;7.80;;;6.27;;
15451;SDS011;7827;53.594;9.938;2022-11-20T09:36:57;7.00;;;6.00;;
15451;SDS011;7827;53.594;9.938;2022-11-20T09:39:33;8.20;;;6.10;;
15451;SDS011;7827;53.594;9.938;2022-11-20T09:42:17;8.27;;;5.90;;
15451;SDS011;7827;53.594;9.938;2022-11-20T09:45:06;9.53;;;6.00;;
15451;SDS011;7827;53.594;9.938;2022-11-20T09:48:01;7.37;;;6.27;;
15451;SDS011;7827;53.594;9.938;2022-11-20T09:50:54;10.47;;;7.83;;
15451;SDS011;7827;53.594;9.938;2022-11-20T09:53:35;9.13;;;7.30;;
15451;SDS011;7827;53.594;9.938;2022-11-20T09:56:21;7.90;;;6.60;;
15451;SDS011;7827;53.594;9.938;2022-11-20T09:58:51;9.20;;;6.37;;
15451;SDS011;7827;53.594;9.938;2022-11-20T10:01:23;8.40;;;6.37;;
15451;SDS011;7827;53.594;9.938;2022-11-20T10:03:59;7.37;;;5.87;;
15451;SDS011;7827;53.594;9.938;2022-11-20T10:06:32;9.87;;;6.30;;
15451;SDS011;7827;53.594;9.938;2022-11-20T10:09:14;6.53;;;5.47;;
15451;SDS011;7827;53.594;9.938;2022-11-20T10:11:56;7.13;;;5.40;;
15451;SDS011;7827;53.594;9.938;2022-11-20T10:14:47;6.30;;;5.57;;
15451;SDS011;7827;53.594;9.938;2022-11-20T10:17:33;5.90;;;5.13;;
15451;SDS011;7827;53.594;9.938;2022-11-20T10:20:37;8.03;;;6.10;;
15451;SDS011;7827;53.594;9.938;2022-11-20T10:26:19;7.00;;;5.67;;
15451;SDS011;7827;53.594;9.938;2022-11-20T10:28:59;6.23;;;5.33;;
15451;SDS011;7827;53.594;9.938;2022-11-20T10:31:39;6.30;;;5.70;;
15451;SDS011;7827;53.594;9.938;2022-11-20T10:34:13;5.97;;;5.37;;
15451;SDS011;7827;53.594;9.938;2022-11-20T10:36:50;6.17;;;5.47;;
15451;SDS011;7827;53.594;9.938;2022-11-20T10:39:28;9.00;;;6.07;;
15451;SDS011;7827;53.594;9.938;2022-11-20T10:42:03;8.00;;;6.23;;
15451;SDS011;7827;53.594;9.938;2022-11-20T10:44:40;6.67;;;5.97;;
15451;SDS011;7827;53.594;9.938;2022-11-20T10:47:32;6.63;;;5.97;;
15451;SDS011;7827;53.594;9.938;2022-11-20T10:50:01;8.97;;;7.03;;
15451;SDS011;7827;53.594;9.938;2022-11-20T10:52:35;8.73;;;6.63;;
15451;SDS011;7827;53.594;9.938;2022-11-20T10:55:21;6.80;;;6.10;;
15451;SDS011;7827;53.594;9.938;2022-11-20T10:58:01;7.33;;;6.27;;
15451;SDS011;7827;53.594;9.938;2022-11-20T11:00:42;7.63;;;5.93;;
15451;SDS011;7827;53.594;9.938;2022-11-20T11:03:14;7.23;;;6.30;;
15451;SDS011;7827;53.594;9.938;2022-11-20T11:05:54;8.10;;;6.33;;
15451;SDS011;7827;53.594;9.938;2022-11-20T11:08:32;6.20;;;5.60;;
15451;SDS011;7827;53.594;9.938;2022-11-20T11:11:07;7.23;;;6.50;;
15451;SDS011;7827;53.594;9.938;2022-11-20T11:13:48;11.20;;;7.70;;
15451;SDS011;7827;53.594;9.938;2022-11-20T11:16:21;10.20;;;6.90;;
15451;SDS011;7827;53.594;9.938;2022-11-20T11:19:02;6.23;;;5.63;;
15451;SDS011;7827;53.594;9.938;2022-11-20T11:21:32;6.60;;;5.67;;
15451;SDS011;7827;53.594;9.938;2022-11-20T11:24:02;6.63;;;5.77;;
15451;SDS011;7827;53.594;9.938;2022-11-20T11:26:53;7.43;;;6.17;;
15451;SDS011;7827;53.594;9.938;2022-11-20T11:29:26;7.33;;;6.33;;
15451;SDS011;7827;53.594;9.938;2022-11-20T11:32:06;7.07;;;5.37;;
15451;SDS011;7827;53.594;9.938;2022-11-20T11:34:38;6.67;;;5.53;;
15451;SDS011;7827;53.594;9.938;2022-11-20T11:37:11;6.07;;;5.47;;
15451;SDS011;7827;53.594;9.938;2022-11-20T11:39:47;7.53;;;6.00;;
15451;SDS011;7827;53.594;9.938;2022-11-20T11:42:40;6.80;;;5.70;;
15451;SDS011;7827;53.594;9.938;2022-11-20T11:45:11;6.27;;;5.20;;
15451;SDS011;7827;53.594;9.938;2022-11-20T11:47:45;6.10;;;5.30;;
15451;SDS011;7827;53.594;9.938;2022-11-20T11:50:16;7.00;;;5.70;;
15451;SDS011;7827;53.594;9.938;2022-11-20T11:52:51;8.43;;;5.77;;
15451;SDS011;7827;53.594;9.938;2022-11-20T11:55:31;5.80;;;4.90;;
15451;SDS011;7827;53.594;9.938;2022-11-20T11:58:11;5.63;;;4.73;;
15451;SDS011;7827;53.594;9.938;2022-11-20T12:00:56;4.40;;;3.80;;
15451;SDS011;7827;53.594;9.938;2022-11-20T12:03:34;4.70;;;4.20;;
15451;SDS011;7827;53.594;9.938;2022-11-20T12:06:09;5.50;;;4.40;;
15451;SDS011;7827;53.594;9.938;2022-11-20T12:08:43;4.80;;;4.30;;
15451;SDS011;7827;53.594;9.938;2022-11-20T12:11:19;4.57;;;4.07;;
15451;SDS011;7827;53.594;9.938;2022-11-20T12:13:57;5.80;;;4.50;;
15451;SDS011;7827;53.594;9.938;2022-11-20T12:16:33;13.07;;;8.13;;
15451;SDS011;7827;53.594;9.938;2022-11-20T12:19:08;9.20;;;5.33;;
15451;SDS011;7827;53.594;9.938;2022-11-20T12:21:43;7.00;;;5.00;;
15451;SDS011;7827;53.594;9.938;2022-11-20T12:24:32;8.60;;;7.00;;
15451;SDS011;7827;53.594;9.938;2022-11-20T12:27:19;7.50;;;5.43;;
15451;SDS011;7827;53.594;9.938;2022-11-20T12:30:12;5.50;;;4.67;;
15451;SDS011;7827;53.594;9.938;2022-11-20T12:32:50;7.13;;;4.97;;
15451;SDS011;7827;53.594;9.938;2022-11-20T12:38:48;4.97;;;4.40;;
15451;SDS011;7827;53.594;9.938;2022-11-20T12:41:40;5.30;;;4.63;;
15451;SDS011;7827;53.594;9.938;2022-11-20T12:44:45;5.80;;;4.83;;
15451;SDS011;7827;53.594;9.938;2022-11-20T12:50:38;5.13;;;4.40;;
15451;SDS011;7827;53.594;9.938;2022-11-20T12:53:42;5.40;;;4.67;;
15451;SDS011;7827;53.594;9.938;2022-11-20T12:56:28;5.00;;;4.43;;
15451;SDS011;7827;53.594;9.938;2022-11-20T12:59:14;4.70;;;3.60;;
15451;SDS011;7827;53.594;9.938;2022-11-20T13:02:03;6.10;;;4.80;;
15451;SDS011;7827;53.594;9.938;2022-11-20T13:05:01;5.20;;;4.70;;
15451;SDS011;7827;53.594;9.938;2022-11-20T13:07:45;3.50;;;3.20;;
15451;SDS011;7827;53.594;9.938;2022-11-20T13:10:18;7.87;;;3.73;;
15451;SDS011;7827;53.594;9.938;2022-11-20T13:12:59;3.47;;;3.17;;
15451;SDS011;7827;53.594;9.938;2022-11-20T13:15:39;3.43;;;3.13;;
15451;SDS011;7827;53.594;9.938;2022-11-20T13:18:18;3.40;;;2.80;;
15451;SDS011;7827;53.594;9.938;2022-11-20T13:20:47;3.30;;;3.00;;
15451;SDS011;7827;53.594;9.938;2022-11-20T13:23:25;4.00;;;3.60;;
15451;SDS011;7827;53.594;9.938;2022-11-20T13:26:06;3.70;;;3.30;;
15451;SDS011;7827;53.594;9.938;2022-11-20T13:28:45;3.60;;;3.23;;
15451;SDS011;7827;53.594;9.938;2022-11-20T13:31:27;3.70;;;3.40;;
15451;SDS011;7827;53.594;9.938;2022-11-20T13:33:59;3.60;;;3.30;;
15451;SDS011;7827;53.594;9.938;2022-11-20T13:36:31;4.97;;;3.60;;
15451;SDS011;7827;53.594;9.938;2022-11-20T13:39:02;3.80;;;3.40;;
15451;SDS011;7827;53.594;9.938;2022-11-20T13:41:34;3.77;;;3.43;;
15451;SDS011;7827;53.594;9.938;2022-11-20T13:44:09;4.40;;;3.80;;
15451;SDS011;7827;53.594;9.938;2022-11-20T13:46:43;5.37;;;4.40;;
15451;SDS011;7827;53.594;9.938;2022-11-20T13:49:17;4.67;;;4.03;;
15451;SDS011;7827;53.594;9.938;2022-11-20T13:51:51;5.07;;;4.53;;
15451;SDS011;7827;53.594;9.938;2022-11-20T13:54:48;4.60;;;4.07;;
15451;SDS011;7827;53.594;9.938;2022-11-20T14:00:41;5.40;;;4.37;;
15451;SDS011;7827;53.594;9.938;2022-11-20T14:03:17;4.93;;;4.00;;
15451;SDS011;7827;53.594;9.938;2022-11-20T14:06:11;4.60;;;4.13;;
15451;SDS011;7827;53.594;9.938;2022-11-20T14:08:48;4.83;;;4.30;;
15451;SDS011;7827;53.594;9.938;2022-11-20T14:11:17;5.07;;;4.50;;
15451;SDS011;7827;53.594;9.938;2022-11-20T14:13:56;6.13;;;4.63;;
15451;SDS011;7827;53.594;9.938;2022-11-20T14:16:30;5.47;;;4.33;;
15451;SDS011;7827;53.594;9.938;2022-11-20T14:22:07;5.40;;;4.47;;
15451;SDS011;7827;53.594;9.938;2022-11-20T14:24:44;5.47;;;4.83;;
15451;SDS011;7827;53.594;9.938;2022-11-20T14:27:14;5.63;;;4.67;;
15451;SDS011;7827;53.594;9.938;2022-11-20T14:29:47;7.03;;;4.90;;
15451;SDS011;7827;53.594;9.938;2022-11-20T14:32:18;4.97;;;4.07;;
15451;SDS011;7827;53.594;9.938;2022-11-20T14:34:49;7.53;;;5.23;;
15451;SDS011;7827;53.594;9.938;2022-11-20T14:37:19;7.73;;;5.33;;
15451;SDS011;7827;53.594;9.938;2022-11-20T14:39:52;6.97;;;4.93;;
15451;SDS011;7827;53.594;9.938;2022-11-20T14:42:25;6.53;;;4.90;;
15451;SDS011;7827;53.594;9.938;2022-11-20T14:44:59;6.20;;;4.87;;
15451;SDS011;7827;53.594;9.938;2022-11-20T14:47:29;9.03;;;5.60;;
15451;SDS011;7827;53.594;9.938;2022-11-20T14:49:59;6.63;;;4.83;;
15451;SDS011;7827;53.594;9.938;2022-11-20T14:52:35;6.43;;;4.97;;
15451;SDS011;7827;53.594;9.938;2022-11-20T14:55:04;7.70;;;5.33;;
15451;SDS011;7827;53.594;9.938;2022-11-20T14:57:33;6.27;;;4.43;;
15451;SDS011;7827;53.594;9.938;2022-11-20T15:00:06;6.43;;;4.77;;
15451;SDS011;7827;53.594;9.938;2022-11-20T15:02:47;5.30;;;4.60;;
15451;SDS011;7827;53.594;9.938;2022-11-20T15:05:19;5.83;;;4.43;;
15451;SDS011;7827;53.594;9.938;2022-11-20T15:07:51;6.77;;;4.87;;
15451;SDS011;7827;53.594;9.938;2022-11-20T15:10:33;5.90;;;4.57;;
15451;SDS011;7827;53.594;9.938;2022-11-20T15:13:04;5.30;;;4.40;;
15451;SDS011;7827;53.594;9.938;2022-11-20T15:15:42;5.20;;;4.70;;
15451;SDS011;7827;53.594;9.938;2022-11-20T15:18:15;7.90;;;6.60;;
15451;SDS011;7827;53.594;9.938;2022-11-20T15:20:47;5.97;;;5.13;;
15451;SDS011;7827;53.594;9.938;2022-11-20T15:23:16;7.07;;;4.77;;
15451;SDS011;7827;53.594;9.938;2022-11-20T15:25:47;6.37;;;5.37;;
15451;SDS011;7827;53.594;9.938;2022-11-20T15:28:18;6.63;;;5.47;;
15451;SDS011;7827;53.594;9.938;2022-11-20T15:30:50;9.97;;;5.63;;
15451;SDS011;7827;53.594;9.938;2022-11-20T15:33:18;10.00;;;5.80;;
15451;SDS011;7827;53.594;9.938;2022-11-20T15:35:47;8.23;;;5.77;;
15451;SDS011;7827;53.594;9.938;2022-11-20T15:38:15;8.60;;;5.83;;
15451;SDS011;7827;53.594;9.938;2022-11-20T15:40:44;7.20;;;5.90;;
15451;SDS011;7827;53.594;9.938;2022-11-20T15:43:12;11.30;;;6.60;;
15451;SDS011;7827;53.594;9.938;2022-11-20T15:45:41;9.13;;;6.57;;
15451;SDS011;7827;53.594;9.938;2022-11-20T15:48:16;9.00;;;6.90;;
15451;SDS011;7827;53.594;9.938;2022-11-20T15:50:49;7.23;;;6.13;;
15451;SDS011;7827;53.594;9.938;2022-11-20T15:53:23;7.53;;;6.33;;